sensor_id;sensor_type;location;lat;lon;timestamp;P1;durP1;ratioP1;P2;durP2;ratioP2
18407;SDS011;9330;52.210;21.174;2023-09-30T00:01:41;15.35;;;12.60;;
18407;SDS011;9330;52.210;21.174;2023-09-30T00:04:09;16.13;;;12.75;;
18407;SDS011;9330;52.210;21.174;2023-09-30T00:06:36;15.15;;;13.20;;
18407;SDS011;9330;52.210;21.174;2023-09-30T00:09:03;14.02;;;12.48;;
18407;SDS011;9330;52.210;21.174;2023-09-30T00:11:31;16.85;;;12.90;;
18407;SDS011;9330;52.210;21.174;2023-09-30T00:13:58;16.63;;;12.57;;
18407;SDS011;9330;52.210;21.174;2023-09-30T00:16:25;15.35;;;12.25;;
18407;SDS011;9330;52.210;21.174;2023-09-30T00:18:52;13.27;;;11.27;;
18407;SDS011;9330;52.210;21.174;2023-09-30T00:21:19;16.27;;;12.13;;
18407;SDS011;9330;52.210;21.174;2023-09-30T00:23:46;14.77;;;12.75;;
18407;SDS011;9330;52.210;21.174;2023-09-30T00:26:13;17.30;;;12.07;;
18407;SDS011;9330;52.210;21.174;2023-09-30T00:28:41;12.85;;;11.45;;
18407;SDS011;9330;52.210;21.174;2023-09-30T00:31:08;14.63;;;12.63;;
18407;SDS011;9330;52.210;21.174;2023-09-30T00:33:36;13.88;;;12.27;;
18407;SDS011;9330;52.210;21.174;2023-09-30T00:36:05;14.73;;;11.50;;
18407;SDS011;9330;52.210;21.174;2023-09-30T00:38:33;15.50;;;11.85;;
18407;SDS011;9330;52.210;21.174;2023-09-30T00:41:00;15.90;;;11.43;;
18407;SDS011;9330;52.210;21.174;2023-09-30T00:43:26;13.02;;;11.52;;
18407;SDS011;9330;52.210;21.174;2023-09-30T00:45:56;18.70;;;12.38;;
18407;SDS011;9330;52.210;21.174;2023-09-30T00:48:32;16.48;;;12.38;;
18407;SDS011;9330;52.210;21.174;2023-09-30T00:50:59;14.40;;;11.20;;
18407;SDS011;9330;52.210;21.174;2023-09-30T00:53:27;13.77;;;11.40;;
18407;SDS011;9330;52.210;21.174;2023-09-30T00:55:54;13.10;;;11.50;;
18407;SDS011;9330;52.210;21.174;2023-09-30T00:58:22;13.85;;;11.75;;
18407;SDS011;9330;52.210;21.174;2023-09-30T01:00:51;14.52;;;12.15;;
18407;SDS011;9330;52.210;21.174;2023-09-30T01:03:20;15.80;;;12.68;;
18407;SDS011;9330;52.210;21.174;2023-09-30T01:05:48;14.25;;;12.00;;
18407;SDS011;9330;52.210;21.174;2023-09-30T01:08:15;13.57;;;12.13;;
18407;SDS011;9330;52.210;21.174;2023-09-30T01:10:42;16.27;;;12.40;;
18407;SDS011;9330;52.210;21.174;2023-09-30T01:13:09;17.40;;;12.35;;
18407;SDS011;9330;52.210;21.174;2023-09-30T01:15:37;14.82;;;11.43;;
18407;SDS011;9330;52.210;21.174;2023-09-30T01:18:04;14.18;;;12.48;;
18407;SDS011;9330;52.210;21.174;2023-09-30T01:20:32;15.10;;;12.43;;
18407;SDS011;9330;52.210;21.174;2023-09-30T01:23:00;13.00;;;11.73;;
18407;SDS011;9330;52.210;21.174;2023-09-30T01:25:28;14.43;;;11.38;;
18407;SDS011;9330;52.210;21.174;2023-09-30T01:27:56;12.75;;;11.45;;
18407;SDS011;9330;52.210;21.174;2023-09-30T01:30:25;13.80;;;12.20;;
18407;SDS011;9330;52.210;21.174;2023-09-30T01:32:51;12.80;;;11.48;;
18407;SDS011;9330;52.210;21.174;2023-09-30T01:35:19;12.88;;;11.63;;
18407;SDS011;9330;52.210;21.174;2023-09-30T01:37:47;15.85;;;12.40;;
18407;SDS011;9330;52.210;21.174;2023-09-30T01:40:15;13.45;;;11.07;;
18407;SDS011;9330;52.210;21.174;2023-09-30T01:42:43;13.57;;;11.50;;
18407;SDS011;9330;52.210;21.174;2023-09-30T01:45:10;15.00;;;11.70;;
18407;SDS011;9330;52.210;21.174;2023-09-30T01:47:37;13.98;;;11.50;;
18407;SDS011;9330;52.210;21.174;2023-09-30T01:50:04;12.45;;;11.15;;
18407;SDS011;9330;52.210;21.174;2023-09-30T01:52:31;13.95;;;12.05;;
18407;SDS011;9330;52.210;21.174;2023-09-30T01:54:58;13.77;;;12.00;;
18407;SDS011;9330;52.210;21.174;2023-09-30T01:57:26;13.43;;;12.02;;
18407;SDS011;9330;52.210;21.174;2023-09-30T01:59:53;15.50;;;11.93;;
18407;SDS011;9330;52.210;21.174;2023-09-30T02:02:20;13.00;;;11.63;;
18407;SDS011;9330;52.210;21.174;2023-09-30T02:04:47;12.65;;;11.35;;
18407;SDS011;9330;52.210;21.174;2023-09-30T02:07:13;13.95;;;12.43;;
18407;SDS011;9330;52.210;21.174;2023-09-30T02:09:40;13.65;;;11.70;;
18407;SDS011;9330;52.210;21.174;2023-09-30T02:12:08;13.75;;;11.60;;
18407;SDS011;9330;52.210;21.174;2023-09-30T02:14:36;14.07;;;11.68;;
18407;SDS011;9330;52.210;21.174;2023-09-30T02:17:04;16.25;;;11.05;;
18407;SDS011;9330;52.210;21.174;2023-09-30T02:19:31;14.82;;;11.73;;
18407;SDS011;9330;52.210;21.174;2023-09-30T02:21:58;13.32;;;11.85;;
18407;SDS011;9330;52.210;21.174;2023-09-30T02:24:25;16.27;;;11.77;;
18407;SDS011;9330;52.210;21.174;2023-09-30T02:26:52;12.07;;;10.85;;
18407;SDS011;9330;52.210;21.174;2023-09-30T02:29:19;15.77;;;12.43;;
18407;SDS011;9330;52.210;21.174;2023-09-30T02:31:47;14.70;;;12.05;;
18407;SDS011;9330;52.210;21.174;2023-09-30T02:34:14;15.02;;;11.45;;
18407;SDS011;9330;52.210;21.174;2023-09-30T02:36:41;13.77;;;12.15;;
18407;SDS011;9330;52.210;21.174;2023-09-30T02:39:07;14.18;;;11.35;;
18407;SDS011;9330;52.210;21.174;2023-09-30T02:41:34;15.50;;;11.63;;
18407;SDS011;9330;52.210;21.174;2023-09-30T02:44:02;12.60;;;11.00;;
18407;SDS011;9330;52.210;21.174;2023-09-30T02:46:29;13.32;;;11.40;;
18407;SDS011;9330;52.210;21.174;2023-09-30T02:48:58;12.82;;;10.90;;
18407;SDS011;9330;52.210;21.174;2023-09-30T02:51:26;13.60;;;11.52;;
18407;SDS011;9330;52.210;21.174;2023-09-30T02:53:54;13.30;;;11.00;;
18407;SDS011;9330;52.210;21.174;2023-09-30T02:56:21;12.90;;;11.50;;
18407;SDS011;9330;52.210;21.174;2023-09-30T02:58:49;12.90;;;11.38;;
18407;SDS011;9330;52.210;21.174;2023-09-30T03:01:16;13.20;;;11.45;;
18407;SDS011;9330;52.210;21.174;2023-09-30T03:03:44;12.50;;;11.20;;
18407;SDS011;9330;52.210;21.174;2023-09-30T03:06:12;12.75;;;10.65;;
18407;SDS011;9330;52.210;21.174;2023-09-30T03:08:40;13.30;;;11.43;;
18407;SDS011;9330;52.210;21.174;2023-09-30T03:11:07;16.10;;;11.73;;
18407;SDS011;9330;52.210;21.174;2023-09-30T03:13:33;13.10;;;10.70;;
18407;SDS011;9330;52.210;21.174;2023-09-30T03:16:00;14.57;;;11.55;;
18407;SDS011;9330;52.210;21.174;2023-09-30T03:18:27;12.65;;;10.68;;
18407;SDS011;9330;52.210;21.174;2023-09-30T03:20:58;13.95;;;11.35;;
18407;SDS011;9330;52.210;21.174;2023-09-30T03:23:27;14.00;;;10.75;;
18407;SDS011;9330;52.210;21.174;2023-09-30T03:25:56;11.63;;;10.43;;
18407;SDS011;9330;52.210;21.174;2023-09-30T03:28:23;12.68;;;11.43;;
18407;SDS011;9330;52.210;21.174;2023-09-30T03:30:50;12.48;;;11.18;;
18407;SDS011;9330;52.210;21.174;2023-09-30T03:33:17;13.27;;;10.98;;
18407;SDS011;9330;52.210;21.174;2023-09-30T03:35:43;14.23;;;11.60;;
18407;SDS011;9330;52.210;21.174;2023-09-30T03:38:11;11.88;;;10.07;;
18407;SDS011;9330;52.210;21.174;2023-09-30T03:40:40;12.45;;;11.05;;
18407;SDS011;9330;52.210;21.174;2023-09-30T03:43:12;11.55;;;10.35;;
18407;SDS011;9330;52.210;21.174;2023-09-30T03:45:40;14.25;;;11.02;;
18407;SDS011;9330;52.210;21.174;2023-09-30T03:48:07;13.13;;;11.70;;
18407;SDS011;9330;52.210;21.174;2023-09-30T03:50:35;12.63;;;11.25;;
18407;SDS011;9330;52.210;21.174;2023-09-30T03:53:02;13.77;;;11.30;;
18407;SDS011;9330;52.210;21.174;2023-09-30T03:55:32;14.57;;;10.77;;
18407;SDS011;9330;52.210;21.174;2023-09-30T03:58:00;13.23;;;10.55;;
18407;SDS011;9330;52.210;21.174;2023-09-30T04:00:28;14.15;;;11.70;;
18407;SDS011;9330;52.210;21.174;2023-09-30T04:02:55;12.30;;;10.60;;
18407;SDS011;9330;52.210;21.174;2023-09-30T04:05:24;13.40;;;11.32;;
18407;SDS011;9330;52.210;21.174;2023-09-30T04:07:54;12.88;;;11.35;;
18407;SDS011;9330;52.210;21.174;2023-09-30T04:10:21;13.05;;;10.95;;
18407;SDS011;9330;52.210;21.174;2023-09-30T04:12:49;14.32;;;11.95;;
18407;SDS011;9330;52.210;21.174;2023-09-30T04:15:17;12.60;;;11.18;;
18407;SDS011;9330;52.210;21.174;2023-09-30T04:17:44;15.85;;;11.15;;
18407;SDS011;9330;52.210;21.174;2023-09-30T04:20:11;13.85;;;11.75;;
18407;SDS011;9330;52.210;21.174;2023-09-30T04:22:45;14.70;;;11.25;;
18407;SDS011;9330;52.210;21.174;2023-09-30T04:25:13;13.73;;;11.48;;
18407;SDS011;9330;52.210;21.174;2023-09-30T04:27:41;14.63;;;11.55;;
18407;SDS011;9330;52.210;21.174;2023-09-30T04:30:09;12.90;;;11.23;;
18407;SDS011;9330;52.210;21.174;2023-09-30T04:32:38;14.32;;;11.35;;
18407;SDS011;9330;52.210;21.174;2023-09-30T04:35:05;13.55;;;11.13;;
18407;SDS011;9330;52.210;21.174;2023-09-30T04:37:33;12.77;;;11.13;;
18407;SDS011;9330;52.210;21.174;2023-09-30T04:40:01;13.40;;;11.13;;
18407;SDS011;9330;52.210;21.174;2023-09-30T04:42:32;12.15;;;10.90;;
18407;SDS011;9330;52.210;21.174;2023-09-30T04:45:01;13.13;;;11.57;;
18407;SDS011;9330;52.210;21.174;2023-09-30T04:47:29;13.25;;;11.20;;
18407;SDS011;9330;52.210;21.174;2023-09-30T04:49:58;12.68;;;11.35;;
18407;SDS011;9330;52.210;21.174;2023-09-30T04:52:29;13.80;;;11.07;;
18407;SDS011;9330;52.210;21.174;2023-09-30T04:54:56;13.00;;;10.95;;
18407;SDS011;9330;52.210;21.174;2023-09-30T04:57:23;12.90;;;11.15;;
18407;SDS011;9330;52.210;21.174;2023-09-30T04:59:50;11.63;;;10.40;;
18407;SDS011;9330;52.210;21.174;2023-09-30T05:02:17;13.02;;;11.18;;
18407;SDS011;9330;52.210;21.174;2023-09-30T05:04:44;15.02;;;11.77;;
18407;SDS011;9330;52.210;21.174;2023-09-30T05:07:12;12.93;;;10.88;;
18407;SDS011;9330;52.210;21.174;2023-09-30T05:09:38;11.75;;;10.32;;
18407;SDS011;9330;52.210;21.174;2023-09-30T05:12:06;14.20;;;10.88;;
18407;SDS011;9330;52.210;21.174;2023-09-30T05:14:33;12.50;;;11.15;;
18407;SDS011;9330;52.210;21.174;2023-09-30T05:17:00;16.67;;;11.38;;
18407;SDS011;9330;52.210;21.174;2023-09-30T05:19:27;18.20;;;11.68;;
18407;SDS011;9330;52.210;21.174;2023-09-30T05:21:53;12.80;;;10.88;;
18407;SDS011;9330;52.210;21.174;2023-09-30T05:24:22;14.32;;;11.15;;
18407;SDS011;9330;52.210;21.174;2023-09-30T05:26:48;14.80;;;12.10;;
18407;SDS011;9330;52.210;21.174;2023-09-30T05:29:15;13.13;;;10.48;;
18407;SDS011;9330;52.210;21.174;2023-09-30T05:31:42;19.75;;;11.25;;
18407;SDS011;9330;52.210;21.174;2023-09-30T05:34:10;12.02;;;10.82;;
18407;SDS011;9330;52.210;21.174;2023-09-30T05:36:36;12.55;;;10.35;;
18407;SDS011;9330;52.210;21.174;2023-09-30T05:39:04;13.48;;;10.65;;
18407;SDS011;9330;52.210;21.174;2023-09-30T05:41:32;11.88;;;10.55;;
18407;SDS011;9330;52.210;21.174;2023-09-30T05:43:59;13.20;;;10.77;;
18407;SDS011;9330;52.210;21.174;2023-09-30T05:46:26;12.80;;;11.13;;
18407;SDS011;9330;52.210;21.174;2023-09-30T05:48:53;14.02;;;10.57;;
18407;SDS011;9330;52.210;21.174;2023-09-30T05:51:19;13.57;;;11.45;;
18407;SDS011;9330;52.210;21.174;2023-09-30T05:53:46;14.05;;;11.27;;
18407;SDS011;9330;52.210;21.174;2023-09-30T05:56:14;13.85;;;11.90;;
18407;SDS011;9330;52.210;21.174;2023-09-30T05:58:42;15.23;;;10.98;;
18407;SDS011;9330;52.210;21.174;2023-09-30T06:01:09;12.30;;;11.00;;
18407;SDS011;9330;52.210;21.174;2023-09-30T06:03:37;15.43;;;11.32;;
18407;SDS011;9330;52.210;21.174;2023-09-30T06:06:10;12.95;;;11.55;;
18407;SDS011;9330;52.210;21.174;2023-09-30T06:08:38;15.65;;;11.32;;
18407;SDS011;9330;52.210;21.174;2023-09-30T06:11:05;14.18;;;11.30;;
18407;SDS011;9330;52.210;21.174;2023-09-30T06:13:32;15.98;;;11.27;;
18407;SDS011;9330;52.210;21.174;2023-09-30T06:16:01;14.02;;;11.55;;
18407;SDS011;9330;52.210;21.174;2023-09-30T06:18:28;18.23;;;12.02;;
18407;SDS011;9330;52.210;21.174;2023-09-30T06:20:55;17.40;;;12.45;;
18407;SDS011;9330;52.210;21.174;2023-09-30T06:23:22;18.58;;;12.55;;
18407;SDS011;9330;52.210;21.174;2023-09-30T06:25:49;16.77;;;12.13;;
18407;SDS011;9330;52.210;21.174;2023-09-30T06:28:16;16.30;;;11.70;;
18407;SDS011;9330;52.210;21.174;2023-09-30T06:30:43;14.60;;;12.10;;
18407;SDS011;9330;52.210;21.174;2023-09-30T06:33:13;17.63;;;12.13;;
18407;SDS011;9330;52.210;21.174;2023-09-30T06:35:40;12.93;;;11.63;;
18407;SDS011;9330;52.210;21.174;2023-09-30T06:38:15;15.35;;;11.10;;
18407;SDS011;9330;52.210;21.174;2023-09-30T06:40:42;15.52;;;11.77;;
18407;SDS011;9330;52.210;21.174;2023-09-30T06:43:10;16.70;;;11.75;;
18407;SDS011;9330;52.210;21.174;2023-09-30T06:45:37;19.83;;;12.27;;
18407;SDS011;9330;52.210;21.174;2023-09-30T06:48:07;15.85;;;13.20;;
18407;SDS011;9330;52.210;21.174;2023-09-30T06:50:39;18.00;;;11.95;;
18407;SDS011;9330;52.210;21.174;2023-09-30T06:53:09;16.58;;;12.80;;
18407;SDS011;9330;52.210;21.174;2023-09-30T06:55:37;16.08;;;12.07;;
18407;SDS011;9330;52.210;21.174;2023-09-30T06:58:04;17.65;;;12.93;;
18407;SDS011;9330;52.210;21.174;2023-09-30T07:00:32;18.17;;;12.88;;
18407;SDS011;9330;52.210;21.174;2023-09-30T07:02:59;15.13;;;12.07;;
18407;SDS011;9330;52.210;21.174;2023-09-30T07:05:26;16.23;;;13.18;;
18407;SDS011;9330;52.210;21.174;2023-09-30T07:07:55;15.65;;;12.75;;
18407;SDS011;9330;52.210;21.174;2023-09-30T07:10:23;15.63;;;12.55;;
18407;SDS011;9330;52.210;21.174;2023-09-30T07:12:50;14.07;;;12.65;;
18407;SDS011;9330;52.210;21.174;2023-09-30T07:15:17;15.40;;;12.90;;
18407;SDS011;9330;52.210;21.174;2023-09-30T07:17:44;14.10;;;12.15;;
18407;SDS011;9330;52.210;21.174;2023-09-30T07:20:12;15.45;;;12.02;;
18407;SDS011;9330;52.210;21.174;2023-09-30T07:22:40;14.32;;;12.82;;
18407;SDS011;9330;52.210;21.174;2023-09-30T07:25:08;13.27;;;11.98;;
18407;SDS011;9330;52.210;21.174;2023-09-30T07:27:35;14.65;;;12.60;;
18407;SDS011;9330;52.210;21.174;2023-09-30T07:30:02;14.57;;;11.50;;
18407;SDS011;9330;52.210;21.174;2023-09-30T07:32:31;13.55;;;12.23;;
18407;SDS011;9330;52.210;21.174;2023-09-30T07:34:58;14.82;;;12.40;;
18407;SDS011;9330;52.210;21.174;2023-09-30T07:37:25;13.85;;;12.40;;
18407;SDS011;9330;52.210;21.174;2023-09-30T07:39:52;16.75;;;12.27;;
18407;SDS011;9330;52.210;21.174;2023-09-30T07:42:20;15.55;;;12.52;;
18407;SDS011;9330;52.210;21.174;2023-09-30T07:44:48;14.48;;;12.40;;
18407;SDS011;9330;52.210;21.174;2023-09-30T07:47:15;15.27;;;12.50;;
18407;SDS011;9330;52.210;21.174;2023-09-30T07:49:41;14.85;;;12.13;;
18407;SDS011;9330;52.210;21.174;2023-09-30T07:52:08;13.30;;;12.00;;
18407;SDS011;9330;52.210;21.174;2023-09-30T07:54:36;14.68;;;13.07;;
18407;SDS011;9330;52.210;21.174;2023-09-30T07:57:02;13.75;;;12.27;;
18407;SDS011;9330;52.210;21.174;2023-09-30T07:59:31;12.68;;;11.38;;
18407;SDS011;9330;52.210;21.174;2023-09-30T08:01:58;16.23;;;12.57;;
18407;SDS011;9330;52.210;21.174;2023-09-30T08:04:25;14.68;;;12.68;;
18407;SDS011;9330;52.210;21.174;2023-09-30T08:06:52;13.35;;;11.95;;
18407;SDS011;9330;52.210;21.174;2023-09-30T08:09:19;14.68;;;12.80;;
18407;SDS011;9330;52.210;21.174;2023-09-30T08:11:47;16.35;;;13.20;;
18407;SDS011;9330;52.210;21.174;2023-09-30T08:14:15;14.38;;;13.00;;
18407;SDS011;9330;52.210;21.174;2023-09-30T08:16:43;16.63;;;12.55;;
18407;SDS011;9330;52.210;21.174;2023-09-30T08:19:10;13.95;;;12.55;;
18407;SDS011;9330;52.210;21.174;2023-09-30T08:21:37;15.02;;;13.02;;
18407;SDS011;9330;52.210;21.174;2023-09-30T08:24:04;15.27;;;13.77;;
18407;SDS011;9330;52.210;21.174;2023-09-30T08:26:31;14.82;;;13.27;;
18407;SDS011;9330;52.210;21.174;2023-09-30T08:28:58;12.90;;;11.60;;
18407;SDS011;9330;52.210;21.174;2023-09-30T08:31:25;16.00;;;13.90;;
18407;SDS011;9330;52.210;21.174;2023-09-30T08:33:53;15.40;;;13.75;;
18407;SDS011;9330;52.210;21.174;2023-09-30T08:36:20;14.60;;;13.18;;
18407;SDS011;9330;52.210;21.174;2023-09-30T08:38:46;14.10;;;12.70;;
18407;SDS011;9330;52.210;21.174;2023-09-30T08:41:15;13.95;;;12.52;;
18407;SDS011;9330;52.210;21.174;2023-09-30T08:43:54;17.13;;;13.20;;
18407;SDS011;9330;52.210;21.174;2023-09-30T08:46:25;13.73;;;12.52;;
18407;SDS011;9330;52.210;21.174;2023-09-30T08:48:55;14.23;;;12.93;;
18407;SDS011;9330;52.210;21.174;2023-09-30T08:51:24;15.07;;;13.45;;
18407;SDS011;9330;52.210;21.174;2023-09-30T08:53:52;14.75;;;13.15;;
18407;SDS011;9330;52.210;21.174;2023-09-30T08:56:20;15.27;;;13.98;;
18407;SDS011;9330;52.210;21.174;2023-09-30T08:58:51;15.55;;;14.02;;
18407;SDS011;9330;52.210;21.174;2023-09-30T09:01:20;15.02;;;13.63;;
18407;SDS011;9330;52.210;21.174;2023-09-30T09:03:48;14.68;;;13.18;;
18407;SDS011;9330;52.210;21.174;2023-09-30T09:06:19;14.90;;;13.40;;
18407;SDS011;9330;52.210;21.174;2023-09-30T09:08:46;16.40;;;14.80;;
18407;SDS011;9330;52.210;21.174;2023-09-30T09:11:13;15.63;;;13.98;;
18407;SDS011;9330;52.210;21.174;2023-09-30T09:13:47;16.00;;;14.25;;
18407;SDS011;9330;52.210;21.174;2023-09-30T09:16:16;15.85;;;14.23;;
18407;SDS011;9330;52.210;21.174;2023-09-30T09:18:43;18.10;;;15.77;;
18407;SDS011;9330;52.210;21.174;2023-09-30T09:21:11;17.20;;;15.48;;
18407;SDS011;9330;52.210;21.174;2023-09-30T09:23:41;17.17;;;15.48;;
18407;SDS011;9330;52.210;21.174;2023-09-30T09:26:09;16.95;;;15.35;;
18407;SDS011;9330;52.210;21.174;2023-09-30T09:28:37;15.88;;;14.27;;
18407;SDS011;9330;52.210;21.174;2023-09-30T09:33:50;17.25;;;15.50;;
18407;SDS011;9330;52.210;21.174;2023-09-30T09:36:18;18.85;;;16.95;;
18407;SDS011;9330;52.210;21.174;2023-09-30T09:38:48;18.23;;;16.33;;
18407;SDS011;9330;52.210;21.174;2023-09-30T09:41:18;23.42;;;20.90;;
18407;SDS011;9330;52.210;21.174;2023-09-30T09:43:46;18.83;;;16.83;;
18407;SDS011;9330;52.210;21.174;2023-09-30T09:46:15;21.27;;;19.08;;
18407;SDS011;9330;52.210;21.174;2023-09-30T09:48:43;20.20;;;18.10;;
18407;SDS011;9330;52.210;21.174;2023-09-30T09:51:12;21.27;;;19.27;;
18407;SDS011;9330;52.210;21.174;2023-09-30T09:53:40;19.00;;;17.10;;
18407;SDS011;9330;52.210;21.174;2023-09-30T09:56:10;19.35;;;17.35;;
18407;SDS011;9330;52.210;21.174;2023-09-30T09:58:38;17.98;;;16.17;;
18407;SDS011;9330;52.210;21.174;2023-09-30T10:01:07;18.27;;;16.55;;
18407;SDS011;9330;52.210;21.174;2023-09-30T10:03:36;18.30;;;16.52;;
18407;SDS011;9330;52.210;21.174;2023-09-30T10:06:04;20.40;;;18.50;;
18407;SDS011;9330;52.210;21.174;2023-09-30T10:08:35;19.48;;;16.92;;
18407;SDS011;9330;52.210;21.174;2023-09-30T10:11:04;19.95;;;17.92;;
18407;SDS011;9330;52.210;21.174;2023-09-30T10:13:51;20.63;;;18.52;;
18407;SDS011;9330;52.210;21.174;2023-09-30T10:19:21;21.92;;;19.63;;
18407;SDS011;9330;52.210;21.174;2023-09-30T10:24:47;22.10;;;18.55;;
18407;SDS011;9330;52.210;21.174;2023-09-30T10:27:33;22.20;;;20.05;;
18407;SDS011;9330;52.210;21.174;2023-09-30T10:30:10;18.83;;;16.80;;
18407;SDS011;9330;52.210;21.174;2023-09-30T10:35:43;20.27;;;18.10;;
18407;SDS011;9330;52.210;21.174;2023-09-30T10:41:03;17.15;;;15.45;;
18407;SDS011;9330;52.210;21.174;2023-09-30T10:43:30;18.65;;;16.80;;
18407;SDS011;9330;52.210;21.174;2023-09-30T10:45:59;18.15;;;16.25;;
18407;SDS011;9330;52.210;21.174;2023-09-30T10:48:36;14.63;;;13.05;;
18407;SDS011;9330;52.210;21.174;2023-09-30T10:51:10;14.70;;;11.82;;
18407;SDS011;9330;52.210;21.174;2023-09-30T10:53:44;11.10;;;10.00;;
18407;SDS011;9330;52.210;21.174;2023-09-30T10:56:13;13.05;;;11.27;;
18407;SDS011;9330;52.210;21.174;2023-09-30T10:58:42;12.30;;;9.80;;
18407;SDS011;9330;52.210;21.174;2023-09-30T11:01:11;8.05;;;6.85;;
18407;SDS011;9330;52.210;21.174;2023-09-30T11:03:39;6.22;;;5.63;;
18407;SDS011;9330;52.210;21.174;2023-09-30T11:06:07;8.45;;;5.35;;
18407;SDS011;9330;52.210;21.174;2023-09-30T11:08:38;5.90;;;4.45;;
18407;SDS011;9330;52.210;21.174;2023-09-30T11:11:10;5.75;;;4.82;;
18407;SDS011;9330;52.210;21.174;2023-09-30T11:13:39;4.63;;;3.83;;
18407;SDS011;9330;52.210;21.174;2023-09-30T11:16:06;5.82;;;4.30;;
18407;SDS011;9330;52.210;21.174;2023-09-30T11:18:34;5.07;;;3.40;;
18407;SDS011;9330;52.210;21.174;2023-09-30T11:21:03;6.35;;;3.30;;
18407;SDS011;9330;52.210;21.174;2023-09-30T11:23:34;6.32;;;3.17;;
18407;SDS011;9330;52.210;21.174;2023-09-30T11:26:02;3.72;;;2.78;;
18407;SDS011;9330;52.210;21.174;2023-09-30T11:28:36;4.32;;;3.25;;
18407;SDS011;9330;52.210;21.174;2023-09-30T11:31:06;5.03;;;3.08;;
18407;SDS011;9330;52.210;21.174;2023-09-30T11:33:48;5.05;;;2.60;;
18407;SDS011;9330;52.210;21.174;2023-09-30T11:36:17;6.10;;;3.35;;
18407;SDS011;9330;52.210;21.174;2023-09-30T11:38:45;5.03;;;3.05;;
18407;SDS011;9330;52.210;21.174;2023-09-30T11:41:15;4.88;;;3.38;;
18407;SDS011;9330;52.210;21.174;2023-09-30T11:44:00;5.43;;;3.20;;
18407;SDS011;9330;52.210;21.174;2023-09-30T11:46:29;6.80;;;2.85;;
18407;SDS011;9330;52.210;21.174;2023-09-30T11:49:00;9.52;;;3.88;;
18407;SDS011;9330;52.210;21.174;2023-09-30T11:51:28;4.05;;;2.75;;
18407;SDS011;9330;52.210;21.174;2023-09-30T11:53:56;5.70;;;3.58;;
18407;SDS011;9330;52.210;21.174;2023-09-30T11:56:23;5.13;;;3.35;;
18407;SDS011;9330;52.210;21.174;2023-09-30T11:58:54;7.40;;;4.28;;
18407;SDS011;9330;52.210;21.174;2023-09-30T12:01:21;5.35;;;4.30;;
18407;SDS011;9330;52.210;21.174;2023-09-30T12:03:50;6.45;;;3.63;;
18407;SDS011;9330;52.210;21.174;2023-09-30T12:06:19;7.15;;;3.55;;
18407;SDS011;9330;52.210;21.174;2023-09-30T12:08:46;8.00;;;4.10;;
18407;SDS011;9330;52.210;21.174;2023-09-30T12:11:13;7.18;;;3.78;;
18407;SDS011;9330;52.210;21.174;2023-09-30T12:13:41;7.05;;;4.22;;
18407;SDS011;9330;52.210;21.174;2023-09-30T12:16:09;5.95;;;4.07;;
18407;SDS011;9330;52.210;21.174;2023-09-30T12:18:37;6.50;;;4.20;;
18407;SDS011;9330;52.210;21.174;2023-09-30T12:21:06;9.23;;;3.83;;
18407;SDS011;9330;52.210;21.174;2023-09-30T12:23:34;6.40;;;4.28;;
18407;SDS011;9330;52.210;21.174;2023-09-30T12:26:01;9.98;;;4.85;;
18407;SDS011;9330;52.210;21.174;2023-09-30T12:28:32;9.27;;;3.65;;
18407;SDS011;9330;52.210;21.174;2023-09-30T12:30:59;5.40;;;3.42;;
18407;SDS011;9330;52.210;21.174;2023-09-30T12:33:28;7.53;;;3.13;;
18407;SDS011;9330;52.210;21.174;2023-09-30T12:35:55;5.80;;;2.78;;
18407;SDS011;9330;52.210;21.174;2023-09-30T12:38:22;5.63;;;2.17;;
18407;SDS011;9330;52.210;21.174;2023-09-30T12:40:51;5.30;;;2.58;;
18407;SDS011;9330;52.210;21.174;2023-09-30T12:43:19;5.68;;;2.40;;
18407;SDS011;9330;52.210;21.174;2023-09-30T12:45:45;7.03;;;2.58;;
18407;SDS011;9330;52.210;21.174;2023-09-30T12:48:12;8.00;;;3.33;;
18407;SDS011;9330;52.210;21.174;2023-09-30T12:50:39;4.68;;;2.38;;
18407;SDS011;9330;52.210;21.174;2023-09-30T12:53:06;5.72;;;2.30;;
18407;SDS011;9330;52.210;21.174;2023-09-30T12:55:33;4.90;;;2.80;;
18407;SDS011;9330;52.210;21.174;2023-09-30T12:58:01;5.80;;;2.58;;
18407;SDS011;9330;52.210;21.174;2023-09-30T13:00:29;5.85;;;3.17;;
18407;SDS011;9330;52.210;21.174;2023-09-30T13:02:58;4.72;;;2.45;;
18407;SDS011;9330;52.210;21.174;2023-09-30T13:05:25;7.20;;;2.92;;
18407;SDS011;9330;52.210;21.174;2023-09-30T13:07:52;5.22;;;2.92;;
18407;SDS011;9330;52.210;21.174;2023-09-30T13:10:18;4.03;;;2.50;;
18407;SDS011;9330;52.210;21.174;2023-09-30T13:13:03;4.07;;;2.33;;
18407;SDS011;9330;52.210;21.174;2023-09-30T13:15:49;5.75;;;3.10;;
18407;SDS011;9330;52.210;21.174;2023-09-30T13:18:15;4.85;;;2.50;;
18407;SDS011;9330;52.210;21.174;2023-09-30T13:20:43;6.85;;;2.95;;
18407;SDS011;9330;52.210;21.174;2023-09-30T13:23:09;7.82;;;3.20;;
18407;SDS011;9330;52.210;21.174;2023-09-30T13:25:36;5.50;;;2.72;;
18407;SDS011;9330;52.210;21.174;2023-09-30T13:28:04;4.72;;;2.80;;
18407;SDS011;9330;52.210;21.174;2023-09-30T13:30:31;5.47;;;2.78;;
18407;SDS011;9330;52.210;21.174;2023-09-30T13:32:59;7.57;;;3.05;;
18407;SDS011;9330;52.210;21.174;2023-09-30T13:35:26;6.60;;;3.03;;
18407;SDS011;9330;52.210;21.174;2023-09-30T13:37:53;4.60;;;2.50;;
18407;SDS011;9330;52.210;21.174;2023-09-30T13:40:19;5.43;;;2.80;;
18407;SDS011;9330;52.210;21.174;2023-09-30T13:42:46;5.00;;;2.67;;
18407;SDS011;9330;52.210;21.174;2023-09-30T13:45:13;7.90;;;3.30;;
18407;SDS011;9330;52.210;21.174;2023-09-30T13:47:43;5.72;;;2.95;;
18407;SDS011;9330;52.210;21.174;2023-09-30T13:50:12;6.28;;;2.70;;
18407;SDS011;9330;52.210;21.174;2023-09-30T13:52:38;6.35;;;2.90;;
18407;SDS011;9330;52.210;21.174;2023-09-30T13:55:05;5.93;;;2.70;;
18407;SDS011;9330;52.210;21.174;2023-09-30T13:57:33;7.50;;;2.95;;
18407;SDS011;9330;52.210;21.174;2023-09-30T14:00:00;7.82;;;3.13;;
18407;SDS011;9330;52.210;21.174;2023-09-30T14:02:28;7.45;;;3.33;;
18407;SDS011;9330;52.210;21.174;2023-09-30T14:04:55;7.38;;;3.33;;
18407;SDS011;9330;52.210;21.174;2023-09-30T14:07:23;4.93;;;2.38;;
18407;SDS011;9330;52.210;21.174;2023-09-30T14:09:51;7.13;;;2.88;;
18407;SDS011;9330;52.210;21.174;2023-09-30T14:12:18;6.57;;;2.83;;
18407;SDS011;9330;52.210;21.174;2023-09-30T14:14:45;5.68;;;2.92;;
18407;SDS011;9330;52.210;21.174;2023-09-30T14:17:12;8.48;;;3.25;;
18407;SDS011;9330;52.210;21.174;2023-09-30T14:19:40;6.43;;;2.83;;
18407;SDS011;9330;52.210;21.174;2023-09-30T14:22:06;6.60;;;2.80;;
18407;SDS011;9330;52.210;21.174;2023-09-30T14:24:35;5.90;;;2.90;;
18407;SDS011;9330;52.210;21.174;2023-09-30T14:27:02;7.30;;;2.53;;
18407;SDS011;9330;52.210;21.174;2023-09-30T14:29:30;5.85;;;2.65;;
18407;SDS011;9330;52.210;21.174;2023-09-30T14:31:57;3.90;;;2.10;;
18407;SDS011;9330;52.210;21.174;2023-09-30T14:34:24;5.05;;;2.20;;
18407;SDS011;9330;52.210;21.174;2023-09-30T14:36:50;7.53;;;2.90;;
18407;SDS011;9330;52.210;21.174;2023-09-30T14:39:18;3.83;;;2.03;;
18407;SDS011;9330;52.210;21.174;2023-09-30T14:41:46;5.82;;;2.00;;
18407;SDS011;9330;52.210;21.174;2023-09-30T14:44:13;5.38;;;2.65;;
18407;SDS011;9330;52.210;21.174;2023-09-30T14:46:40;4.22;;;2.40;;
18407;SDS011;9330;52.210;21.174;2023-09-30T14:49:08;4.72;;;2.30;;